GTI2876 RPLL-RPVM
Flight info
| Callsign | GTI2876 |
|---|---|
| Flight time | 0h 53m |
| Altitude | 33000 |
| Route | IPATA2R IPATA W25 BATAY BATAY3P |
| Aircraft | B748/H-SDE3FGHIM1M2RWXY/LB1 |
Departure
| Time | 2026-05-06 16:51 |
|---|---|
| Airport | Ninoy Aquino International Airport (RPLL) |
Arrival
| Time | 2026-05-06 17:44 |
|---|---|
| Airport | Mactan Cebu International Airport (RPVM) |
| Time | Latitude | Longitude | Altitude | Speed | Heading |
|---|---|---|---|---|---|
| 2026-05-06 16:21 | 14.50607 | 121.00939 | 67 ft | 0 kts | 329° |
| 2026-05-06 16:31 | 14.50606 | 121.00939 | 79 ft | 0 kts | 329° |
| 2026-05-06 16:37 | 14.50606 | 121.00940 | 79 ft | 0 kts | 329° |
| 2026-05-06 16:41 | 14.50595 | 121.00946 | 67 ft | 2 kts | 324° |
| 2026-05-06 16:41 | 14.50582 | 121.00957 | 67 ft | 2 kts | 316° |
| 2026-05-06 16:41 | 14.50572 | 121.00969 | 67 ft | 2 kts | 294° |
| 2026-05-06 16:42 | 14.50568 | 121.00986 | 67 ft | 2 kts | 252° |
| 2026-05-06 16:42 | 14.50573 | 121.00996 | 67 ft | 1 kts | 240° |
| 2026-05-06 16:42 | 14.50573 | 121.00997 | 67 ft | 0 kts | 240° |
| 2026-05-06 16:46 | 14.50570 | 121.00992 | 67 ft | 3 kts | 239° |
| 2026-05-06 16:47 | 14.50553 | 121.00961 | 70 ft | 7 kts | 239° |
| 2026-05-06 16:47 | 14.50519 | 121.00902 | 73 ft | 12 kts | 239° |
| 2026-05-06 16:47 | 14.50463 | 121.00831 | 70 ft | 13 kts | 212° |
| 2026-05-06 16:47 | 14.50407 | 121.00805 | 68 ft | 13 kts | 211° |
| 2026-05-06 16:48 | 14.50360 | 121.00763 | 68 ft | 14 kts | 229° |
| 2026-05-06 16:48 | 14.50184 | 121.00449 | 66 ft | 24 kts | 240° |
| 2026-05-06 16:48 | 14.50096 | 121.00292 | 68 ft | 27 kts | 239° |
| 2026-05-06 16:49 | 14.49999 | 121.00117 | 70 ft | 28 kts | 239° |
| 2026-05-06 16:49 | 14.49917 | 120.99983 | 81 ft | 12 kts | 218° |
| 2026-05-06 16:49 | 14.49854 | 120.99981 | 82 ft | 9 kts | 156° |
| 2026-05-06 16:49 | 14.49814 | 121.00021 | 84 ft | 6 kts | 114° |
| 2026-05-06 16:50 | 14.49814 | 121.00060 | 81 ft | 6 kts | 76° |
| 2026-05-06 16:50 | 14.49834 | 121.00100 | 83 ft | 7 kts | 57° |
| 2026-05-06 16:50 | 14.49923 | 121.00252 | 69 ft | 68 kts | 61° |
| 2026-05-06 16:50 | 14.50339 | 121.01014 | 90 ft | 172 kts | 61° |
| 2026-05-06 16:51 | 14.51008 | 121.02215 | 970 ft | 189 kts | 61° |
| 2026-05-06 16:51 | 14.51612 | 121.03296 | 2250 ft | 172 kts | 59° |
| 2026-05-06 16:51 | 14.52269 | 121.04473 | 2383 ft | 203 kts | 60° |
| 2026-05-06 16:51 | 14.53002 | 121.05798 | 2614 ft | 221 kts | 60° |
| 2026-05-06 16:52 | 14.53789 | 121.07218 | 2820 ft | 235 kts | 60° |
| 2026-05-06 16:52 | 14.54614 | 121.08708 | 3099 ft | 242 kts | 60° |
| 2026-05-06 16:52 | 14.55465 | 121.10244 | 3493 ft | 249 kts | 60° |
| 2026-05-06 16:52 | 14.56330 | 121.11832 | 3868 ft | 260 kts | 64° |
| 2026-05-06 16:53 | 14.57098 | 121.13540 | 4689 ft | 266 kts | 71° |
| 2026-05-06 16:53 | 14.57466 | 121.15424 | 5439 ft | 270 kts | 87° |
| 2026-05-06 16:53 | 14.57125 | 121.17323 | 6325 ft | 274 kts | 116° |
| 2026-05-06 16:53 | 14.55947 | 121.18867 | 7177 ft | 279 kts | 137° |
| 2026-05-06 16:54 | 14.54429 | 121.20135 | 8025 ft | 283 kts | 141° |
| 2026-05-06 16:54 | 14.52864 | 121.21385 | 8875 ft | 286 kts | 139° |
| 2026-05-06 16:54 | 14.51354 | 121.22733 | 9745 ft | 289 kts | 135° |
| 2026-05-06 16:54 | 14.49858 | 121.24142 | 10469 ft | 295 kts | 136° |
| 2026-05-06 16:55 | 14.48287 | 121.25586 | 10965 ft | 310 kts | 136° |
| 2026-05-06 16:55 | 14.46614 | 121.27090 | 11385 ft | 328 kts | 137° |
| 2026-05-06 16:55 | 14.44848 | 121.28682 | 11770 ft | 347 kts | 137° |
| 2026-05-06 16:55 | 14.42991 | 121.30370 | 12139 ft | 365 kts | 137° |
| 2026-05-06 16:56 | 14.41059 | 121.32125 | 12730 ft | 375 kts | 137° |
| 2026-05-06 16:56 | 14.39078 | 121.33919 | 13423 ft | 382 kts | 138° |
| 2026-05-06 16:56 | 14.37069 | 121.35737 | 14070 ft | 387 kts | 138° |
| 2026-05-06 16:56 | 14.35036 | 121.37579 | 14706 ft | 392 kts | 137° |
| 2026-05-06 16:57 | 14.32976 | 121.39446 | 15310 ft | 397 kts | 137° |
| 2026-05-06 16:57 | 14.30890 | 121.41335 | 15924 ft | 401 kts | 137° |
| 2026-05-06 16:57 | 14.28782 | 121.43243 | 16526 ft | 406 kts | 137° |
| 2026-05-06 16:57 | 14.26649 | 121.45173 | 17131 ft | 410 kts | 137° |
| 2026-05-06 16:58 | 14.24490 | 121.47127 | 17730 ft | 415 kts | 137° |
| 2026-05-06 16:58 | 14.22310 | 121.49099 | 18289 ft | 419 kts | 137° |
| 2026-05-06 16:58 | 14.20107 | 121.51091 | 18801 ft | 423 kts | 137° |
| 2026-05-06 16:58 | 14.17915 | 121.53073 | 19295 ft | 427 kts | 137° |
| 2026-05-06 16:59 | 14.15676 | 121.55097 | 19790 ft | 430 kts | 138° |
| 2026-05-06 16:59 | 14.13421 | 121.57134 | 20275 ft | 433 kts | 137° |
| 2026-05-06 16:59 | 14.11151 | 121.59185 | 20760 ft | 436 kts | 138° |
| 2026-05-06 16:59 | 14.08865 | 121.61250 | 21233 ft | 439 kts | 137° |
| 2026-05-06 17:00 | 14.06563 | 121.63328 | 21685 ft | 442 kts | 137° |
| 2026-05-06 17:00 | 14.04244 | 121.65421 | 22139 ft | 445 kts | 137° |
| 2026-05-06 17:00 | 14.01909 | 121.67528 | 22570 ft | 448 kts | 138° |
| 2026-05-06 17:00 | 13.99558 | 121.69647 | 23017 ft | 450 kts | 137° |
| 2026-05-06 17:01 | 13.97198 | 121.71778 | 23434 ft | 453 kts | 137° |
| 2026-05-06 17:01 | 13.94820 | 121.73921 | 23784 ft | 455 kts | 137° |
| 2026-05-06 17:01 | 13.92431 | 121.76074 | 24117 ft | 458 kts | 138° |
| 2026-05-06 17:01 | 13.90028 | 121.78239 | 24454 ft | 460 kts | 138° |
| 2026-05-06 17:02 | 13.87612 | 121.80416 | 24777 ft | 463 kts | 138° |
| 2026-05-06 17:02 | 13.85090 | 121.82489 | 25101 ft | 466 kts | 143° |
| 2026-05-06 17:02 | 13.82469 | 121.84462 | 25427 ft | 468 kts | 143° |
| 2026-05-06 17:02 | 13.79825 | 121.86434 | 25744 ft | 471 kts | 143° |
| 2026-05-06 17:03 | 13.77176 | 121.88434 | 26077 ft | 474 kts | 143° |
| 2026-05-06 17:03 | 13.74518 | 121.90453 | 26411 ft | 476 kts | 143° |
| 2026-05-06 17:03 | 13.71839 | 121.92476 | 26735 ft | 479 kts | 144° |
| 2026-05-06 17:03 | 13.69143 | 121.94500 | 27083 ft | 482 kts | 144° |
| 2026-05-06 17:04 | 13.66431 | 121.96543 | 27426 ft | 484 kts | 144° |
| 2026-05-06 17:04 | 13.63708 | 121.98600 | 27755 ft | 487 kts | 144° |
| 2026-05-06 17:04 | 13.60967 | 122.00668 | 28100 ft | 491 kts | 144° |
| 2026-05-06 17:04 | 13.58202 | 122.02747 | 28465 ft | 494 kts | 144° |
| 2026-05-06 17:05 | 13.55422 | 122.04839 | 28819 ft | 497 kts | 144° |
| 2026-05-06 17:05 | 13.52626 | 122.06946 | 29199 ft | 500 kts | 144° |
| 2026-05-06 17:05 | 13.49815 | 122.09063 | 29593 ft | 503 kts | 144° |
| 2026-05-06 17:05 | 13.46984 | 122.11191 | 29998 ft | 506 kts | 144° |
| 2026-05-06 17:06 | 13.44136 | 122.13333 | 30378 ft | 508 kts | 144° |
| 2026-05-06 17:06 | 13.41292 | 122.15471 | 30952 ft | 506 kts | 145° |
| 2026-05-06 17:06 | 13.38459 | 122.17602 | 31556 ft | 504 kts | 145° |
| 2026-05-06 17:06 | 13.35636 | 122.19723 | 32182 ft | 502 kts | 145° |
| 2026-05-06 17:07 | 13.32863 | 122.21806 | 32720 ft | 500 kts | 145° |
| 2026-05-06 17:07 | 13.30018 | 122.23941 | 32882 ft | 500 kts | 145° |
| 2026-05-06 17:07 | 13.27252 | 122.26018 | 32882 ft | 498 kts | 145° |
| 2026-05-06 17:08 | 13.21629 | 122.30238 | 32880 ft | 497 kts | 145° |
| 2026-05-06 17:08 | 13.20623 | 122.30993 | 32884 ft | 496 kts | 145° |
| 2026-05-06 17:09 | 13.15193 | 122.35063 | 32879 ft | 495 kts | 146° |
| 2026-05-06 17:09 | 13.13955 | 122.35992 | 32874 ft | 495 kts | 145° |
| 2026-05-06 17:10 | 13.08403 | 122.40155 | 32881 ft | 494 kts | 146° |
| 2026-05-06 17:10 | 13.02888 | 122.44284 | 32871 ft | 494 kts | 146° |
| 2026-05-06 17:11 | 12.97334 | 122.48442 | 32879 ft | 494 kts | 146° |
| 2026-05-06 17:11 | 12.91782 | 122.52596 | 32873 ft | 494 kts | 146° |
| 2026-05-06 17:12 | 12.86226 | 122.56750 | 32876 ft | 494 kts | 146° |
| 2026-05-06 17:12 | 12.80670 | 122.60902 | 32878 ft | 494 kts | 146° |
| 2026-05-06 17:12 | 12.77894 | 122.62976 | 32748 ft | 493 kts | 145° |
| 2026-05-06 17:13 | 12.75132 | 122.65039 | 32695 ft | 490 kts | 145° |
| 2026-05-06 17:13 | 12.72372 | 122.67099 | 32865 ft | 495 kts | 146° |
| 2026-05-06 17:13 | 12.69581 | 122.69181 | 32876 ft | 496 kts | 146° |
| 2026-05-06 17:14 | 12.64013 | 122.73337 | 32876 ft | 495 kts | 145° |
| 2026-05-06 17:14 | 12.58445 | 122.77487 | 32870 ft | 495 kts | 145° |
| 2026-05-06 17:15 | 12.52877 | 122.81638 | 32870 ft | 495 kts | 145° |
| 2026-05-06 17:15 | 12.47307 | 122.85786 | 32872 ft | 495 kts | 145° |
| 2026-05-06 17:16 | 12.41742 | 122.89929 | 32872 ft | 495 kts | 145° |
| 2026-05-06 17:16 | 12.36175 | 122.94071 | 32864 ft | 495 kts | 145° |
| 2026-05-06 17:17 | 12.30612 | 122.98208 | 32869 ft | 495 kts | 145° |
| 2026-05-06 17:17 | 12.25051 | 123.02341 | 32867 ft | 494 kts | 145° |
| 2026-05-06 17:18 | 12.19495 | 123.06468 | 32869 ft | 494 kts | 145° |
| 2026-05-06 17:18 | 12.13940 | 123.10593 | 32860 ft | 493 kts | 145° |
| 2026-05-06 17:19 | 12.08385 | 123.14715 | 32862 ft | 493 kts | 145° |
| 2026-05-06 17:19 | 12.02832 | 123.18833 | 32869 ft | 492 kts | 145° |
| 2026-05-06 17:20 | 11.97295 | 123.22938 | 32865 ft | 491 kts | 145° |
| 2026-05-06 17:20 | 11.91770 | 123.27032 | 32858 ft | 490 kts | 146° |
| 2026-05-06 17:21 | 11.86256 | 123.31115 | 32865 ft | 489 kts | 145° |
| 2026-05-06 17:21 | 11.80745 | 123.35193 | 32853 ft | 489 kts | 146° |
| 2026-05-06 17:22 | 11.75234 | 123.39270 | 32858 ft | 489 kts | 145° |
| 2026-05-06 17:22 | 11.69725 | 123.43345 | 32858 ft | 489 kts | 146° |
| 2026-05-06 17:23 | 11.64214 | 123.47419 | 32853 ft | 489 kts | 146° |
| 2026-05-06 17:23 | 11.58708 | 123.51482 | 32862 ft | 487 kts | 145° |
| 2026-05-06 17:24 | 11.53219 | 123.55536 | 32859 ft | 487 kts | 145° |
| 2026-05-06 17:24 | 11.47730 | 123.59587 | 32811 ft | 488 kts | 146° |
| 2026-05-06 17:24 | 11.44977 | 123.61619 | 32366 ft | 490 kts | 145° |
| 2026-05-06 17:25 | 11.42210 | 123.63660 | 31715 ft | 491 kts | 145° |
| 2026-05-06 17:25 | 11.39439 | 123.65700 | 31075 ft | 492 kts | 145° |
| 2026-05-06 17:25 | 11.36660 | 123.67747 | 30422 ft | 494 kts | 145° |
| 2026-05-06 17:25 | 11.33873 | 123.69804 | 29726 ft | 496 kts | 144° |
| 2026-05-06 17:26 | 11.31074 | 123.71866 | 29027 ft | 498 kts | 144° |
| 2026-05-06 17:26 | 11.28261 | 123.73936 | 28319 ft | 499 kts | 144° |
| 2026-05-06 17:26 | 11.25447 | 123.76007 | 27606 ft | 498 kts | 143° |
| 2026-05-06 17:26 | 11.22648 | 123.78069 | 26890 ft | 495 kts | 143° |
| 2026-05-06 17:27 | 11.19872 | 123.80112 | 26184 ft | 490 kts | 143° |
| 2026-05-06 17:27 | 11.17118 | 123.82138 | 25475 ft | 486 kts | 142° |
| 2026-05-06 17:27 | 11.14302 | 123.84026 | 24759 ft | 484 kts | 151° |
| 2026-05-06 17:27 | 11.11190 | 123.85304 | 24155 ft | 481 kts | 163° |
| 2026-05-06 17:28 | 11.07916 | 123.85883 | 23668 ft | 477 kts | 175° |
| 2026-05-06 17:28 | 11.04612 | 123.85759 | 23022 ft | 474 kts | 187° |
| 2026-05-06 17:28 | 11.02486 | 123.85288 | 22608 ft | 471 kts | 195° |
| 2026-05-06 17:28 | 10.98548 | 123.83508 | 21790 ft | 466 kts | 209° |
| 2026-05-06 17:29 | 10.95775 | 123.81751 | 21192 ft | 461 kts | 212° |
| 2026-05-06 17:29 | 10.93084 | 123.80002 | 20619 ft | 457 kts | 210° |
| 2026-05-06 17:29 | 10.90388 | 123.78398 | 20044 ft | 453 kts | 207° |
| 2026-05-06 17:29 | 10.87568 | 123.77004 | 19463 ft | 448 kts | 200° |
| 2026-05-06 17:30 | 10.84622 | 123.76043 | 18871 ft | 443 kts | 192° |
| 2026-05-06 17:30 | 10.82596 | 123.75572 | 18480 ft | 440 kts | 189° |
| 2026-05-06 17:30 | 10.78643 | 123.74756 | 17687 ft | 436 kts | 191° |
| 2026-05-06 17:30 | 10.76660 | 123.74249 | 17292 ft | 434 kts | 194° |
| 2026-05-06 17:31 | 10.73785 | 123.73359 | 16720 ft | 431 kts | 195° |
| 2026-05-06 17:31 | 10.70928 | 123.72492 | 16155 ft | 427 kts | 193° |
| 2026-05-06 17:31 | 10.68072 | 123.71729 | 15596 ft | 422 kts | 192° |
| 2026-05-06 17:31 | 10.65236 | 123.70981 | 15045 ft | 420 kts | 193° |
| 2026-05-06 17:32 | 10.62430 | 123.70191 | 14486 ft | 417 kts | 193° |
| 2026-05-06 17:32 | 10.59647 | 123.69393 | 13937 ft | 414 kts | 193° |
| 2026-05-06 17:32 | 10.56880 | 123.68623 | 13375 ft | 411 kts | 193° |
| 2026-05-06 17:32 | 10.54134 | 123.67869 | 12817 ft | 406 kts | 193° |
| 2026-05-06 17:33 | 10.51428 | 123.67117 | 12360 ft | 400 kts | 193° |
| 2026-05-06 17:33 | 10.48760 | 123.66370 | 11869 ft | 395 kts | 193° |
| 2026-05-06 17:33 | 10.46143 | 123.65639 | 11341 ft | 379 kts | 193° |
| 2026-05-06 17:33 | 10.43687 | 123.64954 | 10853 ft | 353 kts | 192° |
| 2026-05-06 17:34 | 10.41389 | 123.64316 | 10401 ft | 332 kts | 192° |
| 2026-05-06 17:34 | 10.39217 | 123.63713 | 9976 ft | 315 kts | 192° |
| 2026-05-06 17:34 | 10.37149 | 123.63138 | 9523 ft | 302 kts | 192° |
| 2026-05-06 17:34 | 10.35149 | 123.62875 | 9126 ft | 279 kts | 167° |
| 2026-05-06 17:35 | 10.33412 | 123.63482 | 8774 ft | 254 kts | 139° |
| 2026-05-06 17:35 | 10.32175 | 123.64696 | 8456 ft | 251 kts | 127° |
| 2026-05-06 17:35 | 10.30998 | 123.66025 | 8158 ft | 256 kts | 129° |
| 2026-05-06 17:36 | 10.28422 | 123.68637 | 7463 ft | 268 kts | 132° |
| 2026-05-06 17:36 | 10.27087 | 123.69983 | 7115 ft | 273 kts | 131° |
| 2026-05-06 17:36 | 10.25732 | 123.71366 | 6737 ft | 279 kts | 131° |
| 2026-05-06 17:36 | 10.24354 | 123.72774 | 6379 ft | 284 kts | 132° |
| 2026-05-06 17:37 | 10.22950 | 123.74198 | 5951 ft | 284 kts | 132° |
| 2026-05-06 17:37 | 10.21589 | 123.75574 | 5577 ft | 269 kts | 131° |
| 2026-05-06 17:37 | 10.20298 | 123.76883 | 5212 ft | 256 kts | 131° |
| 2026-05-06 17:37 | 10.19069 | 123.78134 | 4880 ft | 245 kts | 131° |
| 2026-05-06 17:38 | 10.17912 | 123.79308 | 4574 ft | 225 kts | 131° |
| 2026-05-06 17:38 | 10.16854 | 123.80449 | 4268 ft | 219 kts | 119° |
| 2026-05-06 17:38 | 10.16436 | 123.81861 | 3965 ft | 205 kts | 85° |
| 2026-05-06 17:38 | 10.16735 | 123.83200 | 3654 ft | 186 kts | 68° |
| 2026-05-06 17:39 | 10.17282 | 123.84321 | 3383 ft | 170 kts | 54° |
| 2026-05-06 17:39 | 10.18031 | 123.85197 | 3169 ft | 159 kts | 45° |
| 2026-05-06 17:39 | 10.18799 | 123.85963 | 2969 ft | 150 kts | 44° |
| 2026-05-06 17:39 | 10.19549 | 123.86706 | 2810 ft | 155 kts | 44° |
| 2026-05-06 17:40 | 10.20309 | 123.87465 | 2584 ft | 152 kts | 44° |
| 2026-05-06 17:40 | 10.21065 | 123.88222 | 2388 ft | 154 kts | 44° |
| 2026-05-06 17:40 | 10.21822 | 123.88980 | 2170 ft | 153 kts | 44° |
| 2026-05-06 17:40 | 10.22581 | 123.89740 | 1975 ft | 155 kts | 43° |
| 2026-05-06 17:41 | 10.23339 | 123.90500 | 1774 ft | 153 kts | 44° |
| 2026-05-06 17:41 | 10.24104 | 123.91266 | 1564 ft | 154 kts | 44° |
| 2026-05-06 17:41 | 10.24853 | 123.92018 | 1371 ft | 155 kts | 43° |
| 2026-05-06 17:41 | 10.25618 | 123.92785 | 1158 ft | 154 kts | 44° |
| 2026-05-06 17:42 | 10.26385 | 123.93553 | 963 ft | 155 kts | 44° |
| 2026-05-06 17:42 | 10.27146 | 123.94315 | 748 ft | 151 kts | 44° |
| 2026-05-06 17:42 | 10.27879 | 123.95050 | 545 ft | 147 kts | 45° |
| 2026-05-06 17:42 | 10.28608 | 123.95776 | 337 ft | 145 kts | 45° |
| 2026-05-06 17:43 | 10.29333 | 123.96505 | 172 ft | 149 kts | 44° |
| 2026-05-06 17:43 | 10.30056 | 123.97236 | 40 ft | 135 kts | 45° |
| 2026-05-06 17:43 | 10.30533 | 123.97720 | 40 ft | 62 kts | 44° |
| 2026-05-06 17:43 | 10.30800 | 123.97992 | 45 ft | 51 kts | 45° |
| 2026-05-06 17:44 | 10.31041 | 123.98227 | 42 ft | 45 kts | 38° |
| 2026-05-06 17:44 | 10.31284 | 123.98345 | 46 ft | 26 kts | 12° |
| 2026-05-06 17:44 | 10.31415 | 123.98295 | 46 ft | 17 kts | 317° |
| 2026-05-06 17:44 | 10.31442 | 123.98243 | 44 ft | 4 kts | 264° |